createdAt,value
2023-02-02T00:01:58.572Z,22.83
2023-02-02T00:04:33.939Z,21.70
2023-02-02T00:07:01.144Z,20.17
2023-02-02T00:09:30.094Z,21.33
2023-02-02T00:11:57.388Z,21.80
2023-02-02T00:14:24.763Z,22.10
2023-02-02T00:16:52.921Z,19.02
2023-02-02T00:19:22.848Z,19.02
2023-02-02T00:21:49.321Z,23.63
2023-02-02T00:24:20.434Z,24.25
2023-02-02T00:26:51.200Z,20.63
2023-02-02T00:29:20.754Z,19.58
2023-02-02T00:31:48.157Z,17.25
2023-02-02T00:34:15.770Z,26.00
2023-02-02T00:36:43.195Z,26.20
2023-02-02T00:39:10.924Z,23.70
2023-02-02T00:41:37.324Z,19.15
2023-02-02T00:44:22.720Z,16.42
2023-02-02T00:46:49.125Z,19.48
2023-02-02T00:49:15.630Z,22.40
2023-02-02T00:51:42.268Z,21.25
2023-02-02T00:54:08.718Z,16.15
2023-02-02T00:56:35.207Z,25.25
2023-02-02T00:59:01.590Z,21.55
2023-02-02T01:01:28.561Z,21.17
2023-02-02T01:03:55.162Z,18.38
2023-02-02T01:06:21.654Z,19.50
2023-02-02T01:08:48.363Z,19.67
2023-02-02T01:11:14.988Z,18.65
2023-02-02T01:13:41.632Z,17.35
2023-02-02T01:16:08.131Z,17.08
2023-02-02T01:18:34.664Z,22.80
2023-02-02T01:21:04.044Z,16.15
2023-02-02T01:23:31.613Z,16.48
2023-02-02T01:26:00.228Z,19.35
2023-02-02T01:28:27.486Z,14.55
2023-02-02T01:30:54.473Z,16.65
2023-02-02T01:33:21.988Z,23.52
2023-02-02T01:35:54.276Z,24.20
2023-02-02T01:38:23.957Z,27.90
2023-02-02T01:40:56.601Z,17.88
2023-02-02T01:43:29.152Z,30.50
2023-02-02T01:45:57.890Z,20.67
2023-02-02T01:48:34.234Z,18.67
2023-02-02T01:51:05.193Z,18.30
2023-02-02T01:53:33.053Z,19.10
2023-02-02T01:56:01.117Z,20.75
2023-02-02T01:58:31.994Z,19.02
2023-02-02T02:00:58.561Z,21.45
2023-02-02T02:03:29.465Z,25.38
2023-02-02T02:06:00.974Z,20.88
2023-02-02T02:08:30.381Z,22.10
2023-02-02T02:10:58.278Z,21.63
2023-02-02T02:13:47.076Z,19.52
2023-02-02T02:16:37.262Z,20.23
2023-02-02T02:19:31.480Z,24.20
2023-02-02T02:22:45.743Z,21.40
2023-02-02T02:25:30.959Z,19.77
2023-02-02T02:28:07.412Z,15.85
2023-02-02T02:31:00.148Z,20.90
2023-02-02T02:33:46.511Z,20.77
2023-02-02T02:36:32.951Z,17.17
2023-02-02T02:39:39.983Z,24.77
2023-02-02T02:42:12.309Z,16.70
2023-02-02T02:44:41.390Z,25.23
2023-02-02T02:47:08.722Z,26.77
2023-02-02T02:49:43.423Z,26.70
2023-02-02T02:52:10.173Z,26.85
2023-02-02T02:54:43.073Z,23.02
2023-02-02T02:57:51.273Z,26.70
2023-02-02T03:00:48.074Z,27.05
2023-02-02T03:03:43.182Z,25.38
2023-02-02T03:06:21.646Z,19.58
2023-02-02T03:09:09.609Z,23.13
2023-02-02T03:11:36.028Z,23.08
2023-02-02T03:14:02.991Z,20.60
2023-02-02T03:16:29.417Z,16.95
2023-02-02T03:18:56.912Z,18.27
2023-02-02T03:21:23.287Z,22.20
2023-02-02T03:23:49.790Z,23.63
2023-02-02T03:26:16.393Z,20.00
2023-02-02T03:28:43.101Z,20.15
2023-02-02T03:31:09.654Z,17.67
2023-02-02T03:33:37.668Z,17.88
2023-02-02T03:36:04.306Z,22.80
2023-02-02T03:38:30.907Z,24.45
2023-02-02T03:40:57.289Z,20.40
2023-02-02T03:43:24.365Z,22.67
2023-02-02T03:46:04.212Z,20.25
2023-02-02T03:48:31.720Z,20.75
2023-02-02T03:50:58.105Z,22.10
2023-02-02T03:53:24.654Z,23.33
2023-02-02T03:55:51.200Z,15.45
2023-02-02T03:58:17.644Z,21.63
2023-02-02T04:00:44.016Z,17.55
2023-02-02T04:03:10.713Z,23.88
2023-02-02T04:05:37.128Z,22.25
2023-02-02T04:08:03.636Z,18.00
2023-02-02T04:10:30.065Z,32.17
2023-02-02T04:12:56.454Z,20.88
2023-02-02T04:15:23.223Z,24.65
2023-02-02T04:17:49.808Z,25.05
2023-02-02T04:20:16.460Z,23.35
2023-02-02T04:22:42.900Z,23.83
2023-02-02T04:25:09.343Z,24.00
2023-02-02T04:27:35.740Z,25.55
2023-02-02T04:30:02.287Z,20.33
2023-02-02T04:32:28.760Z,22.55
2023-02-02T04:34:55.196Z,21.25
2023-02-02T04:37:21.564Z,26.45
2023-02-02T04:39:48.896Z,24.73
2023-02-02T04:42:15.272Z,28.50
2023-02-02T04:44:41.713Z,18.17
2023-02-02T04:47:08.094Z,17.98
2023-02-02T04:49:34.461Z,20.90
2023-02-02T04:52:00.830Z,25.83
2023-02-02T04:54:27.372Z,16.77
2023-02-02T04:56:53.817Z,20.85
2023-02-02T04:59:20.355Z,19.40
2023-02-02T05:01:46.837Z,16.83
2023-02-02T05:04:13.276Z,19.60
2023-02-02T05:06:39.695Z,26.33
2023-02-02T05:09:06.099Z,21.73
2023-02-02T05:11:32.521Z,20.13
2023-02-02T05:13:58.938Z,23.00
2023-02-02T05:16:28.514Z,16.92
2023-02-02T05:18:56.800Z,22.45
2023-02-02T05:21:23.937Z,19.83
2023-02-02T05:23:50.426Z,24.27
2023-02-02T05:26:23.282Z,17.48
2023-02-02T05:28:49.844Z,19.17
2023-02-02T05:31:16.499Z,22.63
2023-02-02T05:33:42.970Z,24.15
2023-02-02T05:36:09.688Z,19.58
2023-02-02T05:38:36.478Z,21.85
2023-02-02T05:41:03.419Z,23.20
2023-02-02T05:43:31.552Z,19.10
2023-02-02T05:45:58.554Z,24.30
2023-02-02T05:48:25.200Z,20.13
2023-02-02T05:51:31.706Z,18.30
2023-02-02T05:53:59.977Z,17.60
2023-02-02T05:56:27.419Z,16.42
2023-02-02T05:58:53.821Z,27.20
2023-02-02T06:01:21.504Z,17.02
2023-02-02T06:03:48.469Z,20.35
2023-02-02T06:06:15.172Z,20.25
2023-02-02T06:08:41.621Z,22.80
2023-02-02T06:11:10.103Z,21.08
2023-02-02T06:13:36.627Z,22.10
2023-02-02T06:16:03.306Z,20.42
2023-02-02T06:18:30.044Z,20.05
2023-02-02T06:21:00.135Z,24.35
2023-02-02T06:23:27.482Z,22.67
2023-02-02T06:25:54.309Z,22.40
2023-02-02T06:28:21.227Z,16.98
2023-02-02T06:30:48.103Z,16.75
2023-02-02T06:33:14.837Z,24.40
2023-02-02T06:35:41.219Z,23.00
2023-02-02T06:38:07.713Z,25.23
2023-02-02T06:40:34.110Z,17.27
2023-02-02T06:43:02.208Z,24.23
2023-02-02T06:45:30.672Z,17.45
2023-02-02T06:48:03.328Z,24.88
2023-02-02T06:50:30.097Z,20.00
2023-02-02T06:52:56.469Z,20.83
2023-02-02T06:55:23.179Z,21.73
2023-02-02T06:57:56.695Z,15.65
2023-02-02T07:02:49.774Z,22.83
2023-02-02T07:05:16.358Z,17.88
2023-02-02T07:07:43.182Z,18.70
2023-02-02T07:10:09.872Z,20.45
2023-02-02T07:12:56.262Z,19.85
2023-02-02T07:15:23.014Z,23.73
2023-02-02T07:17:49.737Z,18.75
2023-02-02T07:20:16.404Z,22.70
2023-02-02T07:22:43.818Z,24.13
2023-02-02T07:25:10.196Z,23.63
2023-02-02T07:27:36.617Z,24.40
2023-02-02T07:30:03.946Z,20.13
2023-02-02T07:32:30.360Z,27.08
2023-02-02T07:34:56.721Z,22.25
2023-02-02T07:37:23.118Z,21.83
2023-02-02T07:39:49.496Z,23.25
2023-02-02T07:42:15.867Z,21.85
2023-02-02T07:44:42.696Z,20.92
2023-02-02T07:47:09.160Z,21.55
2023-02-02T07:49:35.576Z,23.15
2023-02-02T07:52:02.051Z,21.85
2023-02-02T07:54:28.416Z,22.17
2023-02-02T07:56:54.817Z,17.33
2023-02-02T07:59:21.223Z,16.17
2023-02-02T08:01:47.891Z,19.08
2023-02-02T08:04:15.531Z,21.77
2023-02-02T08:06:41.993Z,21.50
2023-02-02T08:09:09.573Z,24.67
2023-02-02T08:11:37.903Z,21.00
2023-02-02T08:14:05.453Z,16.65
2023-02-02T08:16:33.370Z,19.00
2023-02-02T08:19:00.340Z,20.10
2023-02-02T08:21:26.987Z,20.00
2023-02-02T08:23:53.729Z,21.05
2023-02-02T08:26:26.341Z,21.77
2023-02-02T08:28:55.451Z,24.40
2023-02-02T08:31:25.684Z,25.65
2023-02-02T08:33:53.926Z,23.33
2023-02-02T08:36:23.679Z,19.90
2023-02-02T08:38:50.501Z,21.27
2023-02-02T08:41:19.475Z,19.25
2023-02-02T08:43:46.535Z,20.38
2023-02-02T08:46:15.224Z,21.92
2023-02-02T08:48:42.060Z,23.45
2023-02-02T08:51:11.694Z,21.73
2023-02-02T08:53:38.421Z,18.10
2023-02-02T08:56:11.841Z,22.23
2023-02-02T08:58:38.991Z,21.80
2023-02-02T09:01:08.122Z,17.15
2023-02-02T09:03:34.979Z,25.13
2023-02-02T09:06:09.747Z,21.80
2023-02-02T09:08:36.389Z,22.17
2023-02-02T09:11:08.181Z,21.63
2023-02-02T09:13:36.508Z,22.80
2023-02-02T09:16:05.089Z,26.10
2023-02-02T09:18:32.140Z,24.08
2023-02-02T09:21:03.805Z,26.58
2023-02-02T09:23:31.711Z,21.85
2023-02-02T09:25:58.264Z,27.08
2023-02-02T09:28:24.809Z,23.27
2023-02-02T09:30:51.444Z,25.40
2023-02-02T09:33:17.920Z,24.73
2023-02-02T09:35:44.308Z,25.08
2023-02-02T09:38:10.690Z,16.13
2023-02-02T09:40:37.153Z,27.77
2023-02-02T09:43:34.807Z,22.63
2023-02-02T09:46:35.690Z,23.95
2023-02-02T09:49:07.923Z,18.20
2023-02-02T09:51:41.515Z,20.05
2023-02-02T09:56:57.265Z,19.67
2023-02-02T09:59:45.241Z,24.98
2023-02-02T10:02:23.655Z,19.40
2023-02-02T10:04:56.187Z,21.98
2023-02-02T10:07:34.494Z,24.85
2023-02-02T10:10:18.020Z,18.13
2023-02-02T10:13:06.722Z,25.98
2023-02-02T10:15:33.323Z,22.80
2023-02-02T10:18:11.629Z,19.92
2023-02-02T10:20:51.042Z,19.70
2023-02-02T10:23:32.843Z,21.27
2023-02-02T10:26:13.781Z,20.80
2023-02-02T10:29:11.015Z,26.35
2023-02-02T10:31:48.496Z,25.05
2023-02-02T10:34:37.131Z,22.23
2023-02-02T10:37:18.723Z,20.52
2023-02-02T10:40:04.895Z,21.88
2023-02-02T10:43:19.395Z,20.08
2023-02-02T10:48:17.032Z,21.02
2023-02-02T10:50:48.059Z,21.45
2023-02-02T10:53:16.588Z,18.23
2023-02-02T10:55:42.896Z,18.42
2023-02-02T10:58:37.832Z,19.27
2023-02-02T11:01:07.776Z,22.02
2023-02-02T11:03:34.413Z,20.02
2023-02-02T11:06:22.864Z,21.50
2023-02-02T11:08:58.121Z,18.52
2023-02-02T11:11:29.771Z,18.15
2023-02-02T11:13:59.495Z,19.48
2023-02-02T11:16:41.409Z,20.35
2023-02-02T11:19:17.990Z,12.93
2023-02-02T11:21:50.262Z,14.63
2023-02-02T11:24:44.686Z,22.63
2023-02-02T11:27:18.735Z,16.20
2023-02-02T11:29:52.383Z,20.52
2023-02-02T11:32:34.283Z,18.50
2023-02-02T11:35:03.688Z,16.67
2023-02-02T11:37:35.120Z,17.23
2023-02-02T11:40:20.804Z,17.95
2023-02-02T11:42:48.415Z,17.40
2023-02-02T11:45:20.801Z,18.92
2023-02-02T11:47:47.176Z,18.30
2023-02-02T11:50:26.799Z,19.17
2023-02-02T11:52:54.366Z,19.00
2023-02-02T11:55:27.649Z,17.52
2023-02-02T11:58:27.525Z,16.75
2023-02-02T12:01:03.153Z,19.48
2023-02-02T12:03:38.822Z,13.95
2023-02-02T12:06:22.573Z,16.13
2023-02-02T12:11:31.064Z,18.00
2023-02-02T12:13:57.480Z,13.90
2023-02-02T12:16:35.498Z,13.27
2023-02-02T12:19:17.141Z,21.27
2023-02-02T12:22:06.879Z,17.73
2023-02-02T12:24:49.547Z,17.70
2023-02-02T12:27:43.501Z,15.15
2023-02-02T12:30:22.174Z,16.83
2023-02-02T12:33:09.867Z,15.40
2023-02-02T12:35:55.167Z,19.40
2023-02-02T12:38:35.672Z,16.10
2023-02-02T12:41:09.749Z,20.08
2023-02-02T12:43:48.848Z,12.63
2023-02-02T12:47:06.306Z,15.68
2023-02-02T12:49:46.419Z,18.70
2023-02-02T12:52:41.935Z,15.65
2023-02-02T12:55:25.509Z,19.77
2023-02-02T12:58:11.777Z,15.60
2023-02-02T13:00:48.403Z,17.92
2023-02-02T13:03:20.767Z,12.60
2023-02-02T13:06:02.458Z,14.88
2023-02-02T13:08:58.607Z,23.95
2023-02-02T13:11:50.474Z,15.52
2023-02-02T13:14:27.126Z,21.05
2023-02-02T13:16:59.717Z,14.52
2023-02-02T13:19:35.795Z,19.02
2023-02-02T13:22:06.502Z,16.55
2023-02-02T13:24:37.195Z,16.23
2023-02-02T13:27:07.455Z,21.02
2023-02-02T13:29:34.859Z,14.40
2023-02-02T13:32:31.582Z,19.60
2023-02-02T13:35:06.470Z,16.48
2023-02-02T13:37:44.932Z,12.35
2023-02-02T13:40:38.150Z,15.80
2023-02-02T13:43:42.369Z,17.30
2023-02-02T13:46:17.576Z,18.20
2023-02-02T13:49:13.477Z,19.38
2023-02-02T13:51:43.263Z,25.88
2023-02-02T13:54:49.140Z,22.58
2023-02-02T13:57:30.908Z,19.05
2023-02-02T14:00:17.241Z,15.13
2023-02-02T14:02:59.462Z,17.55
2023-02-02T14:05:26.148Z,14.05
2023-02-02T14:08:20.900Z,16.45
2023-02-02T14:10:53.468Z,22.25
2023-02-02T14:13:43.186Z,15.40
2023-02-02T14:16:31.155Z,15.32
2023-02-02T14:19:02.122Z,19.13
2023-02-02T14:21:31.536Z,17.25
2023-02-02T14:24:04.848Z,13.60
2023-02-02T14:26:46.773Z,16.33
2023-02-02T14:29:31.537Z,16.85
2023-02-02T14:32:00.877Z,12.82
2023-02-02T14:34:30.475Z,15.60
2023-02-02T14:37:24.482Z,23.42
2023-02-02T14:43:06.527Z,20.10
2023-02-02T14:45:34.220Z,12.02
2023-02-02T14:48:06.180Z,15.90
2023-02-02T14:50:38.520Z,14.93
2023-02-02T14:53:14.803Z,17.77
2023-02-02T14:56:05.260Z,19.80
2023-02-02T14:58:50.244Z,18.02
2023-02-02T15:01:28.693Z,21.50
2023-02-02T15:03:55.310Z,18.60
2023-02-02T15:06:27.577Z,15.05
2023-02-02T15:09:23.199Z,11.73
2023-02-02T15:12:00.876Z,14.10
2023-02-02T15:15:01.993Z,16.92
2023-02-02T15:17:42.421Z,21.35
2023-02-02T15:20:25.346Z,14.68
2023-02-02T15:23:00.819Z,15.25
2023-02-02T15:26:05.013Z,14.95
2023-02-02T15:31:17.908Z,15.48
2023-02-02T15:33:48.353Z,10.65
2023-02-02T15:36:23.756Z,11.60
2023-02-02T15:38:53.912Z,15.45
2023-02-02T15:41:34.475Z,14.38
2023-02-02T15:44:01.175Z,15.57
2023-02-02T15:46:35.580Z,17.90
2023-02-02T15:49:32.902Z,16.23
2023-02-02T15:52:04.023Z,17.52
2023-02-02T15:54:32.314Z,15.88
2023-02-02T15:57:00.618Z,21.05
2023-02-02T15:59:29.892Z,23.73
2023-02-02T16:02:09.552Z,20.35
2023-02-02T16:04:39.709Z,20.63
2023-02-02T16:07:16.916Z,20.50
2023-02-02T16:09:44.700Z,23.15
2023-02-02T16:12:18.505Z,24.95
2023-02-02T16:14:50.726Z,25.35
2023-02-02T16:17:26.721Z,20.27
2023-02-02T16:20:00.681Z,25.60
2023-02-02T16:22:30.430Z,20.75
2023-02-02T16:25:01.112Z,27.85
2023-02-02T16:27:30.051Z,22.88
2023-02-02T16:30:01.427Z,24.88
2023-02-02T16:32:38.666Z,21.60
2023-02-02T16:35:25.708Z,26.77
2023-02-02T16:37:52.352Z,30.90
2023-02-02T16:40:27.050Z,25.73
2023-02-02T16:43:13.781Z,22.42
2023-02-02T16:45:50.568Z,21.80
2023-02-02T16:48:32.102Z,24.15
2023-02-02T16:51:16.958Z,27.13
2023-02-02T16:53:46.953Z,24.33
2023-02-02T16:56:31.407Z,23.50
2023-02-02T16:59:02.249Z,25.73
2023-02-02T17:01:34.553Z,24.67
2023-02-02T17:04:01.520Z,22.95
2023-02-02T17:06:42.043Z,23.23
2023-02-02T17:09:37.836Z,21.50
2023-02-02T17:12:32.259Z,22.00
2023-02-02T17:15:05.856Z,23.48
2023-02-02T17:17:32.282Z,23.48
2023-02-02T17:19:58.874Z,22.08
2023-02-02T17:22:27.565Z,26.85
2023-02-02T17:24:54.042Z,19.92
2023-02-02T17:27:27.895Z,18.30
2023-02-02T17:29:55.821Z,19.88
2023-02-02T17:32:23.620Z,21.55
2023-02-02T17:34:50.198Z,17.85
2023-02-02T17:37:16.660Z,20.63
2023-02-02T17:39:43.330Z,18.70
2023-02-02T17:42:24.314Z,17.73
2023-02-02T17:44:50.821Z,19.83
2023-02-02T17:47:17.337Z,21.02
2023-02-02T17:49:43.723Z,23.20
2023-02-02T17:52:10.981Z,20.08
2023-02-02T17:54:37.452Z,26.02
2023-02-02T17:57:03.855Z,21.98
2023-02-02T17:59:30.291Z,22.67
2023-02-02T18:01:57.516Z,21.17
2023-02-02T18:04:24.858Z,20.92
2023-02-02T18:06:51.259Z,23.27
2023-02-02T18:09:17.682Z,24.55
2023-02-02T18:11:45.453Z,23.70
2023-02-02T18:14:11.844Z,23.65
2023-02-02T18:16:38.252Z,23.90
2023-02-02T18:19:04.758Z,28.98
2023-02-02T18:21:32.349Z,27.67
2023-02-02T18:23:58.790Z,30.38
2023-02-02T18:26:26.888Z,28.67
2023-02-02T18:28:53.352Z,28.38
2023-02-02T18:31:23.617Z,29.70
2023-02-02T18:33:50.184Z,29.85
2023-02-02T18:36:19.939Z,32.92
2023-02-02T18:38:48.922Z,31.13
2023-02-02T18:41:17.836Z,38.15
2023-02-02T18:43:45.428Z,38.67
2023-02-02T18:46:14.316Z,29.05
2023-02-02T18:48:41.955Z,34.97
2023-02-02T18:51:11.951Z,33.80
2023-02-02T18:53:38.339Z,33.55
2023-02-02T18:56:09.589Z,36.95
2023-02-02T18:58:36.880Z,30.23
2023-02-02T19:01:08.601Z,30.90
2023-02-02T19:03:36.603Z,34.83
2023-02-02T19:06:23.386Z,33.83
2023-02-02T19:08:50.645Z,28.88
2023-02-02T19:11:19.934Z,36.33
2023-02-02T19:13:46.869Z,32.72
2023-02-02T19:16:26.500Z,30.42
2023-02-02T19:18:57.828Z,28.85
2023-02-02T19:21:28.831Z,33.53
2023-02-02T19:23:55.207Z,34.40
2023-02-02T19:26:24.834Z,30.75
2023-02-02T19:28:52.718Z,29.20
2023-02-02T19:31:19.847Z,30.08
2023-02-02T19:33:47.668Z,27.05
2023-02-02T19:36:22.594Z,31.50
2023-02-02T19:38:55.592Z,32.83
2023-02-02T19:41:24.478Z,29.58
2023-02-02T19:43:55.781Z,30.80
2023-02-02T19:46:25.383Z,29.05
2023-02-02T19:49:05.452Z,31.65
2023-02-02T19:51:43.415Z,35.53
2023-02-02T19:54:27.953Z,29.15
2023-02-02T19:56:58.063Z,31.63
2023-02-02T19:59:29.743Z,36.15
2023-02-02T20:01:56.258Z,32.70
2023-02-02T20:04:23.152Z,34.10
2023-02-02T20:06:59.199Z,32.78
2023-02-02T20:09:33.404Z,34.72
2023-02-02T20:12:00.396Z,32.33
2023-02-02T20:14:33.111Z,27.13
2023-02-02T20:17:04.927Z,29.08
2023-02-02T20:19:40.019Z,32.58
2023-02-02T20:22:26.680Z,32.83
2023-02-02T20:24:54.548Z,30.23
2023-02-02T20:27:28.207Z,29.33
2023-02-02T20:29:58.125Z,27.95
2023-02-02T20:32:36.938Z,30.75
2023-02-02T20:35:22.259Z,32.33
2023-02-02T20:37:48.971Z,29.92
2023-02-02T20:40:21.156Z,27.75
2023-02-02T20:42:48.335Z,26.63
2023-02-02T20:45:17.199Z,32.65
2023-02-02T20:47:45.086Z,29.33
2023-02-02T20:50:14.268Z,26.60
2023-02-02T20:52:40.719Z,21.55
2023-02-02T20:55:08.028Z,22.73
2023-02-02T20:57:34.543Z,27.23
2023-02-02T21:00:00.957Z,24.30
2023-02-02T21:02:27.650Z,28.15
2023-02-02T21:04:54.117Z,24.42
2023-02-02T21:07:22.011Z,23.27
2023-02-02T21:09:50.823Z,22.33
2023-02-02T21:12:18.286Z,24.45
2023-02-02T21:14:47.551Z,20.67
2023-02-02T21:17:15.897Z,25.05
2023-02-02T21:19:43.483Z,21.38
2023-02-02T21:22:10.765Z,19.98
2023-02-02T21:24:37.220Z,21.23
2023-02-02T21:27:04.410Z,22.67
2023-02-02T21:29:31.803Z,20.92
2023-02-02T21:32:01.302Z,21.55
2023-02-02T21:34:28.078Z,21.35
2023-02-02T21:36:57.137Z,19.23
2023-02-02T21:39:27.373Z,26.38
2023-02-02T21:42:13.116Z,24.85
2023-02-02T21:44:43.545Z,20.33
2023-02-02T21:47:32.345Z,20.23
2023-02-02T21:50:11.955Z,25.58
2023-02-02T21:52:38.366Z,23.05
2023-02-02T21:55:31.386Z,23.23
2023-02-02T21:58:00.181Z,22.37
2023-02-02T22:00:32.316Z,25.13
2023-02-02T22:02:59.717Z,24.02
2023-02-02T22:05:35.147Z,27.33
2023-02-02T22:08:07.646Z,21.83
2023-02-02T22:10:39.684Z,27.43
2023-02-02T22:13:16.223Z,23.77
2023-02-02T22:15:47.150Z,24.42
2023-02-02T22:18:16.869Z,21.55
2023-02-02T22:20:48.654Z,20.77
2023-02-02T22:23:18.057Z,23.85
2023-02-02T22:25:46.470Z,24.85
2023-02-02T22:28:24.588Z,22.95
2023-02-02T22:30:52.834Z,28.40
2023-02-02T22:33:20.076Z,28.27
2023-02-02T22:35:46.979Z,26.13
2023-02-02T22:38:17.764Z,23.27
2023-02-02T22:40:45.086Z,18.92
2023-02-02T22:43:13.269Z,23.48
2023-02-02T22:45:39.941Z,23.48
2023-02-02T22:48:06.397Z,25.05
2023-02-02T22:50:34.105Z,21.63
2023-02-02T22:53:01.988Z,22.45
2023-02-02T22:55:28.643Z,24.52
2023-02-02T22:57:55.067Z,23.67
2023-02-02T23:00:28.588Z,23.92
2023-02-02T23:02:56.567Z,26.17
2023-02-02T23:05:24.513Z,19.38
2023-02-02T23:07:51.296Z,22.17
2023-02-02T23:10:23.952Z,29.50
2023-02-02T23:12:53.569Z,28.75
2023-02-02T23:15:20.947Z,26.40
2023-02-02T23:17:47.961Z,24.17
2023-02-02T23:20:15.845Z,21.70
2023-02-02T23:22:42.391Z,20.17
2023-02-02T23:25:09.133Z,20.30
2023-02-02T23:27:36.031Z,22.65
2023-02-02T23:30:03.140Z,22.00
2023-02-02T23:32:29.929Z,25.27
2023-02-02T23:34:56.849Z,20.70
2023-02-02T23:37:23.210Z,26.17
2023-02-02T23:39:49.592Z,23.77
2023-02-02T23:42:16.356Z,23.70
2023-02-02T23:44:42.734Z,22.33
2023-02-02T23:47:10.495Z,21.25
2023-02-02T23:49:37.010Z,22.75
2023-02-02T23:52:03.749Z,23.27
2023-02-02T23:54:30.499Z,27.63
2023-02-02T23:56:57.412Z,20.02
2023-02-02T23:59:23.968Z,20.65
